sensor_id;sensor_type;location;lat;lon;timestamp;P1;durP1;ratioP1;P2;durP2;ratioP2
3267;SDS011;1646;52.450;13.326;2023-02-21T00:04:41;7.47;;;6.10;;
3267;SDS011;1646;52.450;13.326;2023-02-21T00:09:58;7.70;;;6.23;;
3267;SDS011;1646;52.450;13.326;2023-02-21T00:15:14;8.43;;;6.40;;
3267;SDS011;1646;52.450;13.326;2023-02-21T00:20:30;5.30;;;4.80;;
3267;SDS011;1646;52.450;13.326;2023-02-21T00:25:47;5.00;;;4.50;;
3267;SDS011;1646;52.450;13.326;2023-02-21T00:31:03;5.73;;;5.13;;
3267;SDS011;1646;52.450;13.326;2023-02-21T00:36:20;8.03;;;6.60;;
3267;SDS011;1646;52.450;13.326;2023-02-21T00:41:37;7.03;;;5.77;;
3267;SDS011;1646;52.450;13.326;2023-02-21T00:46:52;7.07;;;6.30;;
3267;SDS011;1646;52.450;13.326;2023-02-21T00:52:08;6.93;;;5.60;;
3267;SDS011;1646;52.450;13.326;2023-02-21T00:57:25;7.30;;;6.10;;
3267;SDS011;1646;52.450;13.326;2023-02-21T01:02:41;9.27;;;7.00;;
3267;SDS011;1646;52.450;13.326;2023-02-21T01:07:59;9.07;;;6.40;;
3267;SDS011;1646;52.450;13.326;2023-02-21T01:13:16;9.17;;;6.97;;
3267;SDS011;1646;52.450;13.326;2023-02-21T01:18:32;8.70;;;6.80;;
3267;SDS011;1646;52.450;13.326;2023-02-21T01:23:47;6.27;;;5.63;;
3267;SDS011;1646;52.450;13.326;2023-02-21T01:29:06;7.67;;;5.87;;
3267;SDS011;1646;52.450;13.326;2023-02-21T01:34:22;8.87;;;6.53;;
3267;SDS011;1646;52.450;13.326;2023-02-21T01:39:38;7.57;;;6.63;;
3267;SDS011;1646;52.450;13.326;2023-02-21T01:45:17;9.60;;;6.67;;
3267;SDS011;1646;52.450;13.326;2023-02-21T01:50:53;8.37;;;6.70;;
3267;SDS011;1646;52.450;13.326;2023-02-21T01:56:12;7.27;;;6.30;;
3267;SDS011;1646;52.450;13.326;2023-02-21T02:01:34;7.77;;;5.70;;
3267;SDS011;1646;52.450;13.326;2023-02-21T02:06:54;7.10;;;5.93;;
3267;SDS011;1646;52.450;13.326;2023-02-21T02:12:14;7.33;;;5.63;;
3267;SDS011;1646;52.450;13.326;2023-02-21T02:17:27;7.80;;;6.30;;
3267;SDS011;1646;52.450;13.326;2023-02-21T02:22:50;8.10;;;6.10;;
3267;SDS011;1646;52.450;13.326;2023-02-21T02:28:08;9.27;;;6.47;;
3267;SDS011;1646;52.450;13.326;2023-02-21T02:33:32;9.90;;;6.60;;
3267;SDS011;1646;52.450;13.326;2023-02-21T02:38:54;9.60;;;5.90;;
3267;SDS011;1646;52.450;13.326;2023-02-21T02:43:58;10.30;;;7.00;;
3267;SDS011;1646;52.450;13.326;2023-02-21T02:49:02;8.40;;;7.13;;
3267;SDS011;1646;52.450;13.326;2023-02-21T02:54:06;8.57;;;5.90;;
3267;SDS011;1646;52.450;13.326;2023-02-21T02:59:05;9.67;;;6.97;;
3267;SDS011;1646;52.450;13.326;2023-02-21T03:04:10;11.67;;;7.13;;
3267;SDS011;1646;52.450;13.326;2023-02-21T03:09:25;11.03;;;6.77;;
3267;SDS011;1646;52.450;13.326;2023-02-21T03:14:33;10.00;;;6.53;;
3267;SDS011;1646;52.450;13.326;2023-02-21T03:19:36;10.63;;;7.00;;
3267;SDS011;1646;52.450;13.326;2023-02-21T03:24:38;11.27;;;7.30;;
3267;SDS011;1646;52.450;13.326;2023-02-21T03:29:39;10.70;;;6.70;;
3267;SDS011;1646;52.450;13.326;2023-02-21T03:34:39;11.30;;;7.67;;
3267;SDS011;1646;52.450;13.326;2023-02-21T03:39:42;8.40;;;6.27;;
3267;SDS011;1646;52.450;13.326;2023-02-21T03:44:41;9.80;;;6.67;;
3267;SDS011;1646;52.450;13.326;2023-02-21T03:49:39;9.33;;;6.50;;
3267;SDS011;1646;52.450;13.326;2023-02-21T03:54:39;10.13;;;7.37;;
3267;SDS011;1646;52.450;13.326;2023-02-21T03:59:41;10.00;;;7.30;;
3267;SDS011;1646;52.450;13.326;2023-02-21T04:04:42;10.00;;;7.00;;
3267;SDS011;1646;52.450;13.326;2023-02-21T04:09:44;12.07;;;7.40;;
3267;SDS011;1646;52.450;13.326;2023-02-21T04:14:50;10.87;;;7.10;;
3267;SDS011;1646;52.450;13.326;2023-02-21T04:19:49;12.00;;;7.40;;
3267;SDS011;1646;52.450;13.326;2023-02-21T04:24:47;11.37;;;7.23;;
3267;SDS011;1646;52.450;13.326;2023-02-21T04:29:47;13.67;;;9.10;;
3267;SDS011;1646;52.450;13.326;2023-02-21T04:34:47;14.93;;;7.30;;
3267;SDS011;1646;52.450;13.326;2023-02-21T04:39:45;12.57;;;7.60;;
3267;SDS011;1646;52.450;13.326;2023-02-21T04:44:45;12.00;;;7.40;;
3267;SDS011;1646;52.450;13.326;2023-02-21T04:49:58;12.50;;;8.23;;
3267;SDS011;1646;52.450;13.326;2023-02-21T04:54:56;11.33;;;7.37;;
3267;SDS011;1646;52.450;13.326;2023-02-21T04:59:55;11.57;;;7.80;;
3267;SDS011;1646;52.450;13.326;2023-02-21T05:04:54;12.60;;;8.60;;
3267;SDS011;1646;52.450;13.326;2023-02-21T05:09:54;14.17;;;8.80;;
3267;SDS011;1646;52.450;13.326;2023-02-21T05:14:52;12.90;;;9.00;;
3267;SDS011;1646;52.450;13.326;2023-02-21T05:19:51;13.00;;;8.70;;
3267;SDS011;1646;52.450;13.326;2023-02-21T05:24:50;14.87;;;8.20;;
3267;SDS011;1646;52.450;13.326;2023-02-21T05:29:51;15.03;;;8.90;;
3267;SDS011;1646;52.450;13.326;2023-02-21T05:34:50;12.60;;;8.53;;
3267;SDS011;1646;52.450;13.326;2023-02-21T05:39:48;10.43;;;7.57;;
3267;SDS011;1646;52.450;13.326;2023-02-21T05:44:46;14.93;;;9.20;;
3267;SDS011;1646;52.450;13.326;2023-02-21T05:49:46;11.70;;;7.97;;
3267;SDS011;1646;52.450;13.326;2023-02-21T05:54:44;11.97;;;7.97;;
3267;SDS011;1646;52.450;13.326;2023-02-21T05:59:43;12.97;;;8.40;;
3267;SDS011;1646;52.450;13.326;2023-02-21T06:04:43;12.30;;;7.93;;
3267;SDS011;1646;52.450;13.326;2023-02-21T06:09:43;13.30;;;7.90;;
3267;SDS011;1646;52.450;13.326;2023-02-21T06:14:41;11.13;;;7.57;;
3267;SDS011;1646;52.450;13.326;2023-02-21T06:19:40;13.07;;;8.30;;
3267;SDS011;1646;52.450;13.326;2023-02-21T06:24:38;9.03;;;6.57;;
3267;SDS011;1646;52.450;13.326;2023-02-21T06:29:38;12.63;;;7.67;;
3267;SDS011;1646;52.450;13.326;2023-02-21T06:34:36;10.50;;;6.53;;
3267;SDS011;1646;52.450;13.326;2023-02-21T06:39:34;10.37;;;7.13;;
3267;SDS011;1646;52.450;13.326;2023-02-21T06:44:35;11.20;;;6.77;;
3267;SDS011;1646;52.450;13.326;2023-02-21T06:49:34;9.87;;;6.60;;
3267;SDS011;1646;52.450;13.326;2023-02-21T06:54:33;12.37;;;7.87;;
3267;SDS011;1646;52.450;13.326;2023-02-21T06:59:31;9.30;;;6.80;;
3267;SDS011;1646;52.450;13.326;2023-02-21T07:04:30;9.70;;;7.13;;
3267;SDS011;1646;52.450;13.326;2023-02-21T07:09:29;10.27;;;6.97;;
3267;SDS011;1646;52.450;13.326;2023-02-21T07:14:28;10.47;;;6.93;;
3267;SDS011;1646;52.450;13.326;2023-02-21T07:19:26;7.50;;;5.33;;
3267;SDS011;1646;52.450;13.326;2023-02-21T07:24:24;8.13;;;5.47;;
3267;SDS011;1646;52.450;13.326;2023-02-21T07:29:24;6.53;;;4.80;;
3267;SDS011;1646;52.450;13.326;2023-02-21T07:34:23;4.23;;;3.83;;
3267;SDS011;1646;52.450;13.326;2023-02-21T07:39:21;4.73;;;4.10;;
3267;SDS011;1646;52.450;13.326;2023-02-21T07:44:19;6.47;;;4.47;;
3267;SDS011;1646;52.450;13.326;2023-02-21T07:49:19;4.37;;;3.87;;
3267;SDS011;1646;52.450;13.326;2023-02-21T07:54:17;3.77;;;3.47;;
3267;SDS011;1646;52.450;13.326;2023-02-21T07:59:15;4.20;;;3.47;;
3267;SDS011;1646;52.450;13.326;2023-02-21T08:04:13;4.17;;;2.90;;
3267;SDS011;1646;52.450;13.326;2023-02-21T08:09:17;2.53;;;2.30;;
3267;SDS011;1646;52.450;13.326;2023-02-21T08:14:15;1.60;;;1.50;;
3267;SDS011;1646;52.450;13.326;2023-02-21T08:19:13;1.20;;;1.20;;
3267;SDS011;1646;52.450;13.326;2023-02-21T08:24:12;1.00;;;1.00;;
3267;SDS011;1646;52.450;13.326;2023-02-21T08:29:12;1.50;;;0.90;;
3267;SDS011;1646;52.450;13.326;2023-02-21T08:34:13;2.30;;;0.93;;
3267;SDS011;1646;52.450;13.326;2023-02-21T08:39:12;1.00;;;0.90;;
3267;SDS011;1646;52.450;13.326;2023-02-21T08:44:11;0.90;;;0.90;;
3267;SDS011;1646;52.450;13.326;2023-02-21T08:49:12;0.87;;;0.87;;
3267;SDS011;1646;52.450;13.326;2023-02-21T08:54:10;1.03;;;1.00;;
3267;SDS011;1646;52.450;13.326;2023-02-21T08:59:09;1.00;;;1.00;;
3267;SDS011;1646;52.450;13.326;2023-02-21T09:04:08;1.43;;;0.93;;
3267;SDS011;1646;52.450;13.326;2023-02-21T09:09:06;1.50;;;1.37;;
3267;SDS011;1646;52.450;13.326;2023-02-21T09:14:05;1.33;;;1.07;;
3267;SDS011;1646;52.450;13.326;2023-02-21T09:19:03;1.23;;;1.00;;
3267;SDS011;1646;52.450;13.326;2023-02-21T09:24:03;1.30;;;1.20;;
3267;SDS011;1646;52.450;13.326;2023-02-21T09:29:02;1.17;;;1.07;;
3267;SDS011;1646;52.450;13.326;2023-02-21T09:34:00;2.77;;;1.30;;
3267;SDS011;1646;52.450;13.326;2023-02-21T09:38:58;0.90;;;0.90;;
3267;SDS011;1646;52.450;13.326;2023-02-21T09:43:59;1.37;;;0.80;;
3267;SDS011;1646;52.450;13.326;2023-02-21T09:48:59;1.77;;;1.00;;
3267;SDS011;1646;52.450;13.326;2023-02-21T09:53:59;1.40;;;1.30;;
3267;SDS011;1646;52.450;13.326;2023-02-21T09:59:01;4.17;;;1.07;;
3267;SDS011;1646;52.450;13.326;2023-02-21T10:04:01;0.70;;;0.70;;
3267;SDS011;1646;52.450;13.326;2023-02-21T10:09:15;1.20;;;0.90;;
3267;SDS011;1646;52.450;13.326;2023-02-21T10:14:25;2.10;;;0.70;;
3267;SDS011;1646;52.450;13.326;2023-02-21T10:19:30;1.90;;;0.80;;
3267;SDS011;1646;52.450;13.326;2023-02-21T10:24:31;0.70;;;0.70;;
3267;SDS011;1646;52.450;13.326;2023-02-21T10:29:34;1.87;;;0.70;;
3267;SDS011;1646;52.450;13.326;2023-02-21T10:34:40;1.00;;;0.90;;
3267;SDS011;1646;52.450;13.326;2023-02-21T10:39:43;1.10;;;0.77;;
3267;SDS011;1646;52.450;13.326;2023-02-21T10:44:47;1.23;;;0.70;;
3267;SDS011;1646;52.450;13.326;2023-02-21T10:49:47;3.93;;;0.70;;
3267;SDS011;1646;52.450;13.326;2023-02-21T10:54:58;0.80;;;0.70;;
3267;SDS011;1646;52.450;13.326;2023-02-21T11:00:00;3.90;;;1.20;;
3267;SDS011;1646;52.450;13.326;2023-02-21T11:05:10;2.03;;;0.60;;
3267;SDS011;1646;52.450;13.326;2023-02-21T11:10:24;2.03;;;0.70;;
3267;SDS011;1646;52.450;13.326;2023-02-21T11:15:26;5.03;;;0.83;;
3267;SDS011;1646;52.450;13.326;2023-02-21T11:20:24;6.83;;;1.10;;
3267;SDS011;1646;52.450;13.326;2023-02-21T11:25:24;3.30;;;1.13;;
3267;SDS011;1646;52.450;13.326;2023-02-21T11:30:24;6.00;;;1.27;;
3267;SDS011;1646;52.450;13.326;2023-02-21T11:35:25;4.57;;;0.90;;
3267;SDS011;1646;52.450;13.326;2023-02-21T11:40:26;3.80;;;1.10;;
3267;SDS011;1646;52.450;13.326;2023-02-21T11:45:31;2.60;;;0.90;;
3267;SDS011;1646;52.450;13.326;2023-02-21T11:50:32;3.97;;;1.20;;
3267;SDS011;1646;52.450;13.326;2023-02-21T11:55:33;4.57;;;1.00;;
3267;SDS011;1646;52.450;13.326;2023-02-21T12:00:38;2.73;;;1.40;;
3267;SDS011;1646;52.450;13.326;2023-02-21T12:06:00;2.20;;;1.07;;
3267;SDS011;1646;52.450;13.326;2023-02-21T12:11:07;2.70;;;0.97;;
3267;SDS011;1646;52.450;13.326;2023-02-21T12:16:29;8.37;;;1.67;;
3267;SDS011;1646;52.450;13.326;2023-02-21T12:21:40;7.80;;;1.33;;
3267;SDS011;1646;52.450;13.326;2023-02-21T12:27:02;4.40;;;1.13;;
3267;SDS011;1646;52.450;13.326;2023-02-21T12:37:45;5.37;;;1.20;;
3267;SDS011;1646;52.450;13.326;2023-02-21T12:42:55;3.27;;;1.30;;
3267;SDS011;1646;52.450;13.326;2023-02-21T12:48:09;3.60;;;1.40;;
3267;SDS011;1646;52.450;13.326;2023-02-21T12:53:16;5.70;;;1.70;;
3267;SDS011;1646;52.450;13.326;2023-02-21T12:58:17;3.87;;;2.00;;
3267;SDS011;1646;52.450;13.326;2023-02-21T13:03:24;8.40;;;1.90;;
3267;SDS011;1646;52.450;13.326;2023-02-21T13:08:38;4.10;;;1.50;;
3267;SDS011;1646;52.450;13.326;2023-02-21T13:13:46;2.70;;;1.30;;
3267;SDS011;1646;52.450;13.326;2023-02-21T13:18:45;7.80;;;1.70;;
3267;SDS011;1646;52.450;13.326;2023-02-21T13:29:27;4.10;;;1.63;;
3267;SDS011;1646;52.450;13.326;2023-02-21T13:34:28;7.33;;;1.30;;
3267;SDS011;1646;52.450;13.326;2023-02-21T13:39:34;9.17;;;2.23;;
3267;SDS011;1646;52.450;13.326;2023-02-21T13:44:35;4.83;;;1.73;;
3267;SDS011;1646;52.450;13.326;2023-02-21T13:49:50;8.93;;;1.60;;
3267;SDS011;1646;52.450;13.326;2023-02-21T14:00:50;8.40;;;1.90;;
3267;SDS011;1646;52.450;13.326;2023-02-21T14:11:26;7.70;;;2.03;;
3267;SDS011;1646;52.450;13.326;2023-02-21T14:16:29;5.43;;;1.33;;
3267;SDS011;1646;52.450;13.326;2023-02-21T14:21:33;10.00;;;1.70;;
3267;SDS011;1646;52.450;13.326;2023-02-21T14:26:38;12.80;;;1.67;;
3267;SDS011;1646;52.450;13.326;2023-02-21T14:31:45;8.63;;;1.50;;
3267;SDS011;1646;52.450;13.326;2023-02-21T14:36:45;16.83;;;2.80;;
3267;SDS011;1646;52.450;13.326;2023-02-21T14:41:50;6.70;;;1.87;;
3267;SDS011;1646;52.450;13.326;2023-02-21T14:47:12;6.63;;;1.97;;
3267;SDS011;1646;52.450;13.326;2023-02-21T14:57:59;4.73;;;2.33;;
3267;SDS011;1646;52.450;13.326;2023-02-21T15:03:16;9.37;;;2.40;;
3267;SDS011;1646;52.450;13.326;2023-02-21T15:08:18;12.90;;;2.80;;
3267;SDS011;1646;52.450;13.326;2023-02-21T15:13:20;5.53;;;1.93;;
3267;SDS011;1646;52.450;13.326;2023-02-21T15:18:23;5.43;;;1.80;;
3267;SDS011;1646;52.450;13.326;2023-02-21T15:23:23;8.20;;;2.10;;
3267;SDS011;1646;52.450;13.326;2023-02-21T15:28:26;16.80;;;2.60;;
3267;SDS011;1646;52.450;13.326;2023-02-21T15:33:28;16.50;;;2.77;;
3267;SDS011;1646;52.450;13.326;2023-02-21T15:38:30;7.93;;;2.30;;
3267;SDS011;1646;52.450;13.326;2023-02-21T15:43:33;9.60;;;1.90;;
3267;SDS011;1646;52.450;13.326;2023-02-21T15:48:37;8.97;;;2.27;;
3267;SDS011;1646;52.450;13.326;2023-02-21T15:53:36;9.50;;;2.40;;
3267;SDS011;1646;52.450;13.326;2023-02-21T15:58:36;7.90;;;2.20;;
3267;SDS011;1646;52.450;13.326;2023-02-21T16:03:38;11.83;;;2.73;;
3267;SDS011;1646;52.450;13.326;2023-02-21T16:08:37;13.30;;;2.60;;
3267;SDS011;1646;52.450;13.326;2023-02-21T16:13:46;13.83;;;3.10;;
3267;SDS011;1646;52.450;13.326;2023-02-21T16:18:48;13.80;;;3.30;;
3267;SDS011;1646;52.450;13.326;2023-02-21T16:23:52;10.23;;;3.00;;
3267;SDS011;1646;52.450;13.326;2023-02-21T16:28:50;13.10;;;2.57;;
3267;SDS011;1646;52.450;13.326;2023-02-21T16:33:49;12.90;;;4.03;;
3267;SDS011;1646;52.450;13.326;2023-02-21T16:38:49;8.97;;;2.53;;
3267;SDS011;1646;52.450;13.326;2023-02-21T16:43:47;15.67;;;3.50;;
3267;SDS011;1646;52.450;13.326;2023-02-21T16:48:45;17.33;;;3.23;;
3267;SDS011;1646;52.450;13.326;2023-02-21T16:53:44;20.13;;;3.40;;
3267;SDS011;1646;52.450;13.326;2023-02-21T16:58:45;14.50;;;2.70;;
3267;SDS011;1646;52.450;13.326;2023-02-21T17:03:45;17.27;;;3.73;;
3267;SDS011;1646;52.450;13.326;2023-02-21T17:08:45;6.70;;;2.20;;
3267;SDS011;1646;52.450;13.326;2023-02-21T17:13:43;16.93;;;3.30;;
3267;SDS011;1646;52.450;13.326;2023-02-21T17:18:42;17.33;;;3.40;;
3267;SDS011;1646;52.450;13.326;2023-02-21T17:23:41;8.33;;;2.40;;
3267;SDS011;1646;52.450;13.326;2023-02-21T17:28:41;13.77;;;3.10;;
3267;SDS011;1646;52.450;13.326;2023-02-21T17:33:39;19.07;;;3.97;;
3267;SDS011;1646;52.450;13.326;2023-02-21T17:38:38;18.40;;;4.20;;
3267;SDS011;1646;52.450;13.326;2023-02-21T17:43:37;11.40;;;2.80;;
3267;SDS011;1646;52.450;13.326;2023-02-21T17:48:38;20.47;;;4.40;;
3267;SDS011;1646;52.450;13.326;2023-02-21T17:53:38;10.53;;;4.20;;
3267;SDS011;1646;52.450;13.326;2023-02-21T17:58:37;12.07;;;3.70;;
3267;SDS011;1646;52.450;13.326;2023-02-21T18:03:37;16.03;;;4.03;;
3267;SDS011;1646;52.450;13.326;2023-02-21T18:08:35;18.47;;;3.40;;
3267;SDS011;1646;52.450;13.326;2023-02-21T18:13:33;14.80;;;3.93;;
3267;SDS011;1646;52.450;13.326;2023-02-21T18:18:32;14.00;;;3.43;;
3267;SDS011;1646;52.450;13.326;2023-02-21T18:23:33;14.27;;;3.60;;
3267;SDS011;1646;52.450;13.326;2023-02-21T18:28:33;18.90;;;4.80;;
3267;SDS011;1646;52.450;13.326;2023-02-21T18:33:31;16.10;;;4.30;;
3267;SDS011;1646;52.450;13.326;2023-02-21T18:38:29;18.37;;;3.50;;
3267;SDS011;1646;52.450;13.326;2023-02-21T18:43:29;15.30;;;3.57;;
3267;SDS011;1646;52.450;13.326;2023-02-21T18:48:27;10.00;;;3.73;;
3267;SDS011;1646;52.450;13.326;2023-02-21T18:53:27;23.40;;;4.23;;
3267;SDS011;1646;52.450;13.326;2023-02-21T18:58:25;26.00;;;4.30;;
3267;SDS011;1646;52.450;13.326;2023-02-21T19:03:25;21.10;;;3.90;;
3267;SDS011;1646;52.450;13.326;2023-02-21T19:08:23;18.73;;;3.47;;
3267;SDS011;1646;52.450;13.326;2023-02-21T19:13:22;13.37;;;3.00;;
3267;SDS011;1646;52.450;13.326;2023-02-21T19:18:20;13.80;;;3.50;;
3267;SDS011;1646;52.450;13.326;2023-02-21T19:23:20;15.53;;;4.27;;
3267;SDS011;1646;52.450;13.326;2023-02-21T19:28:19;19.30;;;4.03;;
3267;SDS011;1646;52.450;13.326;2023-02-21T19:33:19;18.13;;;4.20;;
3267;SDS011;1646;52.450;13.326;2023-02-21T19:38:21;22.13;;;5.17;;
3267;SDS011;1646;52.450;13.326;2023-02-21T19:43:19;20.13;;;4.63;;
3267;SDS011;1646;52.450;13.326;2023-02-21T19:48:18;16.63;;;4.10;;
3267;SDS011;1646;52.450;13.326;2023-02-21T19:53:18;24.63;;;5.50;;
3267;SDS011;1646;52.450;13.326;2023-02-21T19:58:17;22.97;;;4.77;;
3267;SDS011;1646;52.450;13.326;2023-02-21T20:03:16;15.73;;;5.07;;
3267;SDS011;1646;52.450;13.326;2023-02-21T20:08:14;21.63;;;5.00;;
3267;SDS011;1646;52.450;13.326;2023-02-21T20:13:12;16.60;;;4.57;;
3267;SDS011;1646;52.450;13.326;2023-02-21T20:18:12;21.40;;;4.40;;
3267;SDS011;1646;52.450;13.326;2023-02-21T20:23:10;10.87;;;2.93;;
3267;SDS011;1646;52.450;13.326;2023-02-21T20:28:09;21.60;;;3.77;;
3267;SDS011;1646;52.450;13.326;2023-02-21T20:33:07;15.90;;;3.70;;
3267;SDS011;1646;52.450;13.326;2023-02-21T20:38:06;18.23;;;3.70;;
3267;SDS011;1646;52.450;13.326;2023-02-21T20:43:06;19.70;;;4.10;;
3267;SDS011;1646;52.450;13.326;2023-02-21T20:48:05;20.63;;;4.80;;
3267;SDS011;1646;52.450;13.326;2023-02-21T20:53:08;21.47;;;4.00;;
3267;SDS011;1646;52.450;13.326;2023-02-21T20:58:07;19.40;;;4.43;;
3267;SDS011;1646;52.450;13.326;2023-02-21T21:03:05;17.83;;;3.57;;
3267;SDS011;1646;52.450;13.326;2023-02-21T21:08:05;32.50;;;4.73;;
3267;SDS011;1646;52.450;13.326;2023-02-21T21:13:05;28.00;;;4.07;;
3267;SDS011;1646;52.450;13.326;2023-02-21T21:18:03;15.23;;;3.63;;
3267;SDS011;1646;52.450;13.326;2023-02-21T21:23:04;26.00;;;4.27;;
3267;SDS011;1646;52.450;13.326;2023-02-21T21:28:03;21.70;;;4.50;;
3267;SDS011;1646;52.450;13.326;2023-02-21T21:33:03;22.20;;;4.27;;
3267;SDS011;1646;52.450;13.326;2023-02-21T21:38:20;32.40;;;3.50;;
3267;SDS011;1646;52.450;13.326;2023-02-21T21:43:23;22.30;;;4.23;;
3267;SDS011;1646;52.450;13.326;2023-02-21T21:48:23;16.00;;;3.87;;
3267;SDS011;1646;52.450;13.326;2023-02-21T21:53:22;26.83;;;4.83;;
3267;SDS011;1646;52.450;13.326;2023-02-21T21:58:20;23.47;;;4.53;;
3267;SDS011;1646;52.450;13.326;2023-02-21T22:03:23;20.73;;;4.10;;
3267;SDS011;1646;52.450;13.326;2023-02-21T22:08:23;15.03;;;3.70;;
3267;SDS011;1646;52.450;13.326;2023-02-21T22:13:22;14.50;;;3.10;;
3267;SDS011;1646;52.450;13.326;2023-02-21T22:18:26;19.67;;;3.60;;
3267;SDS011;1646;52.450;13.326;2023-02-21T22:23:25;16.17;;;3.80;;
3267;SDS011;1646;52.450;13.326;2023-02-21T22:28:25;14.20;;;4.40;;
3267;SDS011;1646;52.450;13.326;2023-02-21T22:33:23;15.07;;;3.30;;
3267;SDS011;1646;52.450;13.326;2023-02-21T22:38:23;22.00;;;4.40;;
3267;SDS011;1646;52.450;13.326;2023-02-21T22:43:21;17.57;;;3.70;;
3267;SDS011;1646;52.450;13.326;2023-02-21T22:48:20;17.53;;;4.20;;
3267;SDS011;1646;52.450;13.326;2023-02-21T22:53:20;24.60;;;4.27;;
3267;SDS011;1646;52.450;13.326;2023-02-21T22:58:19;21.23;;;4.13;;
3267;SDS011;1646;52.450;13.326;2023-02-21T23:03:17;19.47;;;5.00;;
3267;SDS011;1646;52.450;13.326;2023-02-21T23:08:16;24.23;;;4.30;;
3267;SDS011;1646;52.450;13.326;2023-02-21T23:13:21;14.70;;;3.90;;
3267;SDS011;1646;52.450;13.326;2023-02-21T23:18:20;13.83;;;4.10;;
3267;SDS011;1646;52.450;13.326;2023-02-21T23:23:19;17.57;;;3.70;;
3267;SDS011;1646;52.450;13.326;2023-02-21T23:28:23;25.03;;;4.80;;
3267;SDS011;1646;52.450;13.326;2023-02-21T23:33:24;15.50;;;4.30;;
3267;SDS011;1646;52.450;13.326;2023-02-21T23:38:25;18.43;;;4.13;;
3267;SDS011;1646;52.450;13.326;2023-02-21T23:43:25;27.27;;;4.77;;
3267;SDS011;1646;52.450;13.326;2023-02-21T23:48:25;17.97;;;3.80;;
3267;SDS011;1646;52.450;13.326;2023-02-21T23:53:25;22.30;;;4.60;;
3267;SDS011;1646;52.450;13.326;2023-02-21T23:58:27;17.40;;;4.43;;
